Time;durP1;ratioP1;P1;durP2;ratioP2;P2;SDS_P1;SDS_P2;PMS_P1;PMS_P2;Temp;Humidity;BMP_temperature;BMP_pressure;BME280_temperature;BME280_humidity;BME280_pressure;Samples;Min_cycle;Max_cycle;Signal;HPM_P1;HPM_P2
2024/03/10 00:00:20;;;;;;;13.80;10.65;;;9.00;99.90;;;;;;5014696;28;20049;-72
2024/03/10 00:02:58;;;;;;;14.38;11.15;;;9.00;99.90;;;;;;5010880;28;20393;-73
2024/03/10 00:05:29;;;;;;;15.98;11.23;;;8.90;99.90;;;;;;4996828;28;20489;-71
2024/03/10 00:07:57;;;;;;;14.77;10.65;;;8.80;99.90;;;;;;5002159;28;20380;-73
2024/03/10 00:10:25;;;;;;;16.40;11.00;;;8.70;99.90;;;;;;5004003;28;20098;-74
2024/03/10 00:13:03;;;;;;;15.43;11.02;;;8.80;99.90;;;;;;4996457;28;20447;-72
2024/03/10 00:15:30;;;;;;;15.55;11.57;;;8.90;99.90;;;;;;4983678;28;20442;-73
2024/03/10 00:17:59;;;;;;;14.45;10.50;;;9.00;99.90;;;;;;5002617;28;20041;-74
2024/03/10 00:20:27;;;;;;;13.80;10.23;;;9.00;99.90;;;;;;4985189;28;20065;-74
2024/03/10 00:22:55;;;;;;;13.23;10.48;;;9.00;99.90;;;;;;4997699;28;20046;-74
2024/03/10 00:25:23;;;;;;;12.93;10.07;;;9.00;99.90;;;;;;5003467;28;20046;-72
2024/03/10 00:27:52;;;;;;;12.93;9.77;;;9.10;99.90;;;;;;5015365;28;20370;-72
2024/03/10 00:30:20;;;;;;;12.48;9.13;;;9.20;99.90;;;;;;4980363;28;20042;-75
2024/03/10 00:32:48;;;;;;;11.43;8.45;;;9.10;99.90;;;;;;5000914;28;20069;-73
2024/03/10 00:35:15;;;;;;;10.48;8.38;;;9.20;99.90;;;;;;5006410;28;20034;-73
2024/03/10 00:37:44;;;;;;;9.93;7.88;;;9.20;99.90;;;;;;5012131;28;20149;-73
2024/03/10 00:40:14;;;;;;;58.05;34.70;;;9.40;99.90;;;;;;4997633;28;20038;-74
2024/03/10 00:42:43;;;;;;;82.03;44.92;;;9.40;99.90;;;;;;4988984;28;20037;-72
2024/03/10 00:45:11;;;;;;;20.15;14.18;;;9.50;99.90;;;;;;4998904;28;20098;-72
2024/03/10 00:47:38;;;;;;;11.48;9.20;;;9.50;99.90;;;;;;4996866;28;20048;-74
2024/03/10 00:50:08;;;;;;;10.48;8.25;;;9.40;99.90;;;;;;5014468;28;20046;-72
2024/03/10 00:52:37;;;;;;;11.57;7.53;;;9.40;99.90;;;;;;5015580;28;20056;-72
2024/03/10 00:55:05;;;;;;;10.23;7.82;;;9.40;99.90;;;;;;5006735;28;20126;-72
2024/03/10 00:57:33;;;;;;;10.35;7.78;;;9.40;99.90;;;;;;4993706;28;20051;-71
2024/03/10 01:00:01;;;;;;;16.95;11.40;;;9.40;99.90;;;;;;5006052;28;20761;-74
2024/03/10 01:02:28;;;;;;;18.75;13.13;;;9.40;99.90;;;;;;4996113;28;20387;-73
2024/03/10 01:04:56;;;;;;;12.23;8.45;;;9.50;99.90;;;;;;5016437;28;20114;-73
2024/03/10 01:07:23;;;;;;;12.48;8.52;;;9.30;99.90;;;;;;5019535;28;20069;-73
2024/03/10 01:09:51;;;;;;;10.63;8.50;;;9.40;99.90;;;;;;5011156;28;20070;-71
2024/03/10 01:12:18;;;;;;;10.98;8.93;;;9.40;99.90;;;;;;5015451;28;20042;-73
2024/03/10 01:14:47;;;;;;;13.02;9.18;;;9.30;99.90;;;;;;4996100;28;20095;-74
2024/03/10 01:17:14;;;;;;;11.98;8.88;;;9.30;99.90;;;;;;5017378;28;20034;-73
2024/03/10 01:19:44;;;;;;;10.77;8.07;;;9.30;99.90;;;;;;4994272;28;20034;-72
2024/03/10 01:22:16;;;;;;;10.63;8.10;;;9.30;99.90;;;;;;4996575;28;20030;-72
2024/03/10 01:24:44;;;;;;;13.82;9.02;;;9.30;99.90;;;;;;5016711;28;20389;-73
2024/03/10 01:27:13;;;;;;;10.77;8.55;;;9.30;99.90;;;;;;5000298;28;20046;-73
2024/03/10 01:29:40;;;;;;;12.82;9.00;;;9.30;99.90;;;;;;5013946;28;20056;-73
2024/03/10 01:32:08;;;;;;;16.77;9.77;;;9.30;99.90;;;;;;5017727;28;20037;-73
2024/03/10 01:34:36;;;;;;;12.82;9.02;;;9.30;99.90;;;;;;5019791;28;20064;-73
2024/03/10 01:37:03;;;;;;;11.85;8.88;;;9.30;99.90;;;;;;4989877;28;20049;-71
2024/03/10 01:39:31;;;;;;;15.10;9.55;;;9.20;99.90;;;;;;5019310;28;20030;-74
2024/03/10 01:41:58;;;;;;;14.95;10.75;;;9.20;99.90;;;;;;5002280;28;20477;-73
2024/03/10 01:44:26;;;;;;;15.40;9.70;;;9.20;99.90;;;;;;4980201;28;20369;-72
2024/03/10 01:46:53;;;;;;;11.40;9.18;;;9.30;99.90;;;;;;4998779;28;20037;-73
2024/03/10 01:49:21;;;;;;;11.05;8.95;;;9.20;99.90;;;;;;5017406;28;20044;-71
2024/03/10 01:51:48;;;;;;;13.93;9.18;;;9.20;99.90;;;;;;5010750;28;20087;-73
2024/03/10 01:54:18;;;;;;;11.07;8.85;;;9.20;99.90;;;;;;5014855;28;20029;-72
2024/03/10 01:56:46;;;;;;;11.57;8.93;;;9.20;99.90;;;;;;5017744;28;20026;-71
2024/03/10 01:59:14;;;;;;;12.43;9.25;;;9.10;99.90;;;;;;5008779;28;20038;-72
2024/03/10 02:01:42;;;;;;;13.07;9.70;;;9.00;99.90;;;;;;4999025;28;20038;-72
2024/03/10 02:04:09;;;;;;;12.70;8.88;;;8.90;99.90;;;;;;4985908;28;20038;-72
2024/03/10 02:06:37;;;;;;;13.20;9.30;;;9.00;99.90;;;;;;5017265;28;20073;-71
2024/03/10 02:09:05;;;;;;;14.73;9.63;;;9.00;99.90;;;;;;5012871;28;20111;-72
2024/03/10 02:11:32;;;;;;;15.20;9.85;;;9.10;99.90;;;;;;4996980;28;20515;-71
2024/03/10 02:14:00;;;;;;;15.05;9.82;;;9.20;99.90;;;;;;5017681;28;20112;-71
2024/03/10 02:16:28;;;;;;;12.23;9.35;;;9.20;99.90;;;;;;5010307;28;20041;-72
2024/03/10 02:18:55;;;;;;;12.05;9.15;;;9.20;99.90;;;;;;5019551;28;20109;-72
2024/03/10 02:21:24;;;;;;;12.63;9.70;;;9.20;99.90;;;;;;5017488;28;20037;-73
2024/03/10 02:24:03;;;;;;;14.43;10.05;;;9.20;99.90;;;;;;4995258;28;20485;-72
2024/03/10 02:26:36;;;;;;;13.35;10.18;;;9.20;99.90;;;;;;5018498;28;20426;-74
2024/03/10 02:29:15;;;;;;;13.85;10.00;;;9.20;99.90;;;;;;4994848;28;20406;-72
2024/03/10 02:48:25;;;;;;;13.60;9.93;;;9.10;99.90;;;;;;5014713;28;20149;-72
2024/03/10 02:50:52;;;;;;;14.07;9.90;;;9.20;99.90;;;;;;5011541;28;20362;-72
2024/03/10 02:53:20;;;;;;;12.20;9.52;;;9.30;99.90;;;;;;5011302;28;20041;-71
2024/03/10 02:55:47;;;;;;;12.25;10.05;;;9.30;99.90;;;;;;5014017;28;20044;-72
2024/03/10 02:58:14;;;;;;;12.23;9.82;;;9.30;99.90;;;;;;4993516;28;20049;-71
2024/03/10 03:00:42;;;;;;;14.60;10.20;;;9.40;99.90;;;;;;5013359;28;20039;-72
2024/03/10 03:03:09;;;;;;;14.27;9.73;;;9.40;99.90;;;;;;5014538;28;20083;-73
2024/03/10 03:05:39;;;;;;;13.80;9.77;;;9.40;99.90;;;;;;4992310;28;20042;-72
2024/03/10 03:08:08;;;;;;;13.45;9.68;;;9.50;99.90;;;;;;4997123;28;20041;-71
2024/03/10 03:10:36;;;;;;;13.77;9.48;;;9.50;99.90;;;;;;5013222;28;20042;-74
2024/03/10 03:13:03;;;;;;;13.70;9.70;;;9.40;99.90;;;;;;5007554;28;20053;-72
2024/03/10 03:15:31;;;;;;;12.77;9.13;;;9.50;99.90;;;;;;5016062;28;20037;-72
2024/03/10 03:17:58;;;;;;;12.20;9.43;;;9.50;99.90;;;;;;4998532;28;20075;-73
2024/03/10 03:20:26;;;;;;;11.35;9.23;;;9.50;99.90;;;;;;5016212;28;20161;-72
2024/03/10 03:22:54;;;;;;;11.27;8.98;;;9.50;99.90;;;;;;4994259;28;20052;-73
2024/03/10 03:25:24;;;;;;;10.93;8.77;;;9.50;99.90;;;;;;5011619;28;20109;-72
2024/03/10 03:27:52;;;;;;;14.73;8.18;;;9.40;99.90;;;;;;4999235;28;20042;-73
2024/03/10 03:30:22;;;;;;;12.75;8.95;;;9.30;99.90;;;;;;4995046;28;20109;-71
2024/03/10 03:32:49;;;;;;;9.73;8.43;;;9.40;99.90;;;;;;4991242;28;20046;-72
2024/03/10 03:35:17;;;;;;;10.88;8.75;;;9.30;99.90;;;;;;5018845;28;20069;-72
2024/03/10 03:37:45;;;;;;;12.00;9.30;;;9.30;99.90;;;;;;5032237;28;20036;-72
2024/03/10 03:40:14;;;;;;;16.15;9.27;;;9.30;99.90;;;;;;5016505;28;20029;-71
2024/03/10 03:42:42;;;;;;;11.45;9.13;;;9.30;99.90;;;;;;5000863;28;20373;-72
2024/03/10 03:45:10;;;;;;;10.43;8.77;;;9.50;99.90;;;;;;5008817;28;20063;-71
2024/03/10 03:47:37;;;;;;;11.10;8.48;;;9.50;99.90;;;;;;5008358;28;20040;-71
2024/03/10 03:50:05;;;;;;;14.35;9.02;;;9.50;99.90;;;;;;4997747;28;20054;-71
2024/03/10 03:52:33;;;;;;;11.25;8.57;;;9.50;99.90;;;;;;4990019;28;20041;-72
2024/03/10 03:55:01;;;;;;;10.80;8.38;;;9.50;99.90;;;;;;5014403;28;20074;-72
2024/03/10 03:57:28;;;;;;;14.88;9.10;;;9.50;99.90;;;;;;4997146;28;20094;-71
2024/03/10 03:59:56;;;;;;;11.88;8.35;;;9.60;99.90;;;;;;5011873;28;20361;-72
2024/03/10 04:02:25;;;;;;;13.13;8.90;;;9.60;99.90;;;;;;5014834;28;20045;-71
2024/03/10 04:04:54;;;;;;;;;;;9.40;99.90;;;;;;4992651;28;20470;-71
2024/03/10 04:07:22;;;;;;;11.48;8.07;;;9.00;99.90;;;;;;5015970;28;19917;-71
2024/03/10 04:09:49;;;;;;;12.50;9.45;;;9.10;99.90;;;;;;4977226;28;20757;-72
2024/03/10 04:12:17;;;;;;;11.45;9.20;;;9.20;99.90;;;;;;4997900;28;20133;-71
2024/03/10 04:14:44;;;;;;;11.52;8.52;;;9.30;99.90;;;;;;4998492;28;20067;-71
2024/03/10 04:17:11;;;;;;;12.65;9.55;;;9.40;99.90;;;;;;5014198;28;20034;-71
2024/03/10 04:19:39;;;;;;;11.30;9.20;;;9.40;99.90;;;;;;5016258;28;20036;-71
2024/03/10 04:22:09;;;;;;;11.82;8.95;;;9.50;99.90;;;;;;4982889;28;20056;-70
2024/03/10 04:24:41;;;;;;;10.30;8.57;;;9.50;99.90;;;;;;5008393;28;20111;-71
2024/03/10 04:27:09;;;;;;;11.75;8.80;;;9.60;99.90;;;;;;5015116;28;20094;-69
2024/03/10 04:29:36;;;;;;;11.68;8.65;;;9.60;99.90;;;;;;5006329;28;20038;-71
2024/03/10 04:32:07;;;;;;;10.90;8.50;;;9.70;99.90;;;;;;5014162;28;20048;-71
2024/03/10 04:34:36;;;;;;;11.93;8.80;;;9.70;99.90;;;;;;5018010;28;20037;-71
2024/03/10 04:37:08;;;;;;;14.35;9.15;;;9.70;99.90;;;;;;5009961;28;20554;-72
2024/03/10 04:39:36;;;;;;;13.20;8.93;;;9.60;99.90;;;;;;5008957;28;20044;-71
2024/03/10 04:42:04;;;;;;;13.13;9.55;;;9.60;99.90;;;;;;5018742;28;20066;-72
2024/03/10 04:44:32;;;;;;;11.93;8.95;;;9.60;99.90;;;;;;4992030;28;20137;-72
2024/03/10 04:46:59;;;;;;;12.40;8.98;;;9.60;99.90;;;;;;4982514;28;20090;-72
2024/03/10 04:49:27;;;;;;;11.70;8.77;;;9.60;99.90;;;;;;5012639;28;20039;-74
2024/03/10 04:51:55;;;;;;;11.55;8.82;;;9.60;99.90;;;;;;5014911;28;20052;-73
2024/03/10 04:54:22;;;;;;;14.63;9.55;;;9.70;99.90;;;;;;5012113;28;20030;-73
2024/03/10 04:56:50;;;;;;;11.50;9.02;;;9.70;99.90;;;;;;5001320;28;20065;-73
2024/03/10 04:59:18;;;;;;;13.20;9.13;;;9.70;99.90;;;;;;5010987;28;20031;-73
2024/03/10 05:01:46;;;;;;;11.73;9.02;;;9.70;99.90;;;;;;5014459;28;20041;-70
2024/03/10 05:04:14;;;;;;;11.55;8.90;;;9.60;99.90;;;;;;5019062;28;20025;-71
2024/03/10 05:06:41;;;;;;;14.65;10.35;;;9.70;99.90;;;;;;5014290;28;20052;-72
2024/03/10 05:09:09;;;;;;;12.30;9.35;;;9.70;99.90;;;;;;5016352;28;20045;-71
2024/03/10 05:11:36;;;;;;;10.30;8.93;;;9.60;99.90;;;;;;5011151;28;20073;-72
2024/03/10 05:14:04;;;;;;;14.52;9.77;;;9.60;99.90;;;;;;4999757;28;20044;-73
2024/03/10 05:16:32;;;;;;;12.18;9.30;;;9.60;99.90;;;;;;5018154;28;20127;-72
2024/03/10 05:18:59;;;;;;;13.85;9.80;;;9.60;99.90;;;;;;5016857;28;20424;-71
2024/03/10 05:21:26;;;;;;;12.35;9.77;;;9.60;99.90;;;;;;5012407;28;20038;-72
2024/03/10 05:23:54;;;;;;;12.70;10.35;;;9.70;99.90;;;;;;5013840;28;20042;-73
2024/03/10 05:26:21;;;;;;;13.88;9.45;;;9.70;99.90;;;;;;5014809;28;20034;-72
2024/03/10 05:28:49;;;;;;;13.13;10.35;;;9.70;99.90;;;;;;5014285;28;20034;-71
2024/03/10 05:31:27;;;;;;;13.55;10.30;;;9.60;99.90;;;;;;5014135;28;20089;-72
2024/03/10 05:33:57;;;;;;;15.25;10.98;;;9.60;99.90;;;;;;5016889;28;20064;-73
2024/03/10 05:36:28;;;;;;;16.65;10.70;;;9.50;99.90;;;;;;5018664;28;20384;-71
2024/03/10 05:38:56;;;;;;;15.13;11.63;;;9.50;99.90;;;;;;4978947;28;20449;-71
2024/03/10 05:41:23;;;;;;;17.55;12.32;;;9.50;99.90;;;;;;5016718;28;20046;-71
2024/03/10 05:43:51;;;;;;;16.55;11.13;;;9.50;99.90;;;;;;5015034;28;20366;-71
2024/03/10 05:46:18;;;;;;;16.92;11.18;;;9.50;99.90;;;;;;5011585;28;20030;-71
2024/03/10 05:48:47;;;;;;;15.20;10.90;;;9.60;99.90;;;;;;5016158;28;20049;-70
2024/03/10 05:51:15;;;;;;;13.98;10.63;;;9.60;99.90;;;;;;5003716;28;20541;-71
2024/03/10 05:53:43;;;;;;;15.95;10.52;;;9.60;99.90;;;;;;4996056;28;20437;-71
2024/03/10 05:56:10;;;;;;;17.65;11.27;;;9.70;99.90;;;;;;4997422;28;20041;-71
2024/03/10 05:58:38;;;;;;;13.07;10.00;;;9.60;99.90;;;;;;5010154;28;20028;-71
2024/03/10 06:01:07;;;;;;;18.90;10.55;;;9.70;99.90;;;;;;5010288;28;20065;-71
2024/03/10 06:03:35;;;;;;;13.63;10.25;;;9.80;99.90;;;;;;5014363;28;20251;-72
2024/03/10 06:06:03;;;;;;;13.88;9.73;;;9.80;99.90;;;;;;4997962;28;20042;-72
2024/03/10 06:08:30;;;;;;;15.98;10.73;;;10.00;99.90;;;;;;5001326;28;20534;-72
2024/03/10 06:10:58;;;;;;;20.58;11.63;;;10.00;99.90;;;;;;5012220;28;20090;-71
2024/03/10 06:13:26;;;;;;;14.32;10.88;;;10.10;99.90;;;;;;4999784;28;20112;-72
2024/03/10 06:15:53;;;;;;;17.98;12.25;;;10.20;99.90;;;;;;5013239;28;20042;-73
2024/03/10 06:18:21;;;;;;;15.30;11.48;;;10.20;99.90;;;;;;5010124;28;20131;-71
2024/03/10 06:26:21;;;;;;;14.98;11.30;;;10.20;99.90;;;;;;5012985;28;20108;-72
2024/03/10 06:28:50;;;;;;;19.80;12.27;;;10.20;99.90;;;;;;4999635;28;20099;-71
2024/03/10 06:31:19;;;;;;;15.88;12.32;;;10.30;99.90;;;;;;5012873;28;20041;-71
2024/03/10 06:33:50;;;;;;;16.30;12.25;;;10.30;99.90;;;;;;5017515;28;20080;-71
2024/03/10 06:36:17;;;;;;;17.08;11.70;;;10.40;99.90;;;;;;4994220;28;20095;-70
2024/03/10 06:38:45;;;;;;;19.23;13.25;;;10.40;99.90;;;;;;5015387;28;20040;-71
2024/03/10 06:41:12;;;;;;;16.45;12.60;;;10.50;99.90;;;;;;4993753;28;20037;-72
2024/03/10 06:43:40;;;;;;;18.33;13.02;;;10.50;99.90;;;;;;5007947;28;20033;-72
2024/03/10 06:46:10;;;;;;;22.90;14.43;;;10.50;99.90;;;;;;5008135;28;20086;-72
2024/03/10 06:48:38;;;;;;;18.25;13.77;;;10.60;99.90;;;;;;4998275;28;20090;-71
2024/03/10 06:51:08;;;;;;;15.93;11.65;;;10.60;99.90;;;;;;5027354;28;20042;-71
2024/03/10 06:53:36;;;;;;;14.85;11.65;;;10.70;99.90;;;;;;5014711;28;20419;-69
2024/03/10 06:56:04;;;;;;;15.73;10.98;;;10.60;99.90;;;;;;5012017;28;20045;-71
2024/03/10 06:58:34;;;;;;;17.17;11.82;;;10.60;99.90;;;;;;4984189;28;20083;-71
2024/03/10 07:01:07;;;;;;;16.55;11.60;;;10.70;99.90;;;;;;5004006;28;20033;-71
2024/03/10 07:03:35;;;;;;;14.15;10.57;;;10.70;99.90;;;;;;5012111;28;20054;-72
2024/03/10 07:06:06;;;;;;;15.32;10.85;;;10.80;99.90;;;;;;4994363;28;20041;-69
2024/03/10 07:08:34;;;;;;;14.32;10.55;;;10.80;99.90;;;;;;4985256;28;20073;-73
2024/03/10 07:11:02;;;;;;;14.00;10.40;;;10.80;99.90;;;;;;4992624;28;20041;-70
2024/03/10 07:13:29;;;;;;;32.58;21.48;;;10.90;99.90;;;;;;4989230;28;20039;-73
2024/03/10 07:15:58;;;;;;;30.77;21.13;;;11.40;99.90;;;;;;5013391;28;20042;-75
2024/03/10 07:18:26;;;;;;;72.35;43.33;;;11.40;99.90;;;;;;4995272;28;20485;-75
2024/03/10 07:20:57;;;;;;;169.68;92.43;;;11.50;99.90;;;;;;4999590;28;20052;-74
2024/03/10 07:23:25;;;;;;;30.92;23.73;;;11.50;99.90;;;;;;5013009;28;20044;-72
2024/03/10 07:25:52;;;;;;;18.63;14.60;;;11.30;99.90;;;;;;5009965;28;20709;-71
2024/03/10 07:28:21;;;;;;;13.93;11.13;;;11.20;99.90;;;;;;5001270;28;20351;-70
2024/03/10 07:30:49;;;;;;;14.13;10.93;;;11.20;99.90;;;;;;4975112;28;20041;-72
2024/03/10 07:33:18;;;;;;;14.27;11.02;;;11.20;99.90;;;;;;5001599;28;20031;-71
2024/03/10 07:35:45;;;;;;;14.40;10.85;;;11.30;99.90;;;;;;5011531;28;20040;-73
2024/03/10 07:38:13;;;;;;;16.05;10.82;;;11.40;99.90;;;;;;5000389;28;20073;-72
2024/03/10 07:40:40;;;;;;;18.52;11.68;;;11.70;99.90;;;;;;4990876;28;20034;-71
2024/03/10 07:43:08;;;;;;;14.32;10.45;;;11.80;99.90;;;;;;4995998;28;20468;-73
2024/03/10 07:45:35;;;;;;;18.10;10.82;;;11.70;99.90;;;;;;4985964;28;20549;-72
2024/03/10 07:48:05;;;;;;;14.52;10.40;;;11.90;99.90;;;;;;5009884;28;20038;-70
2024/03/10 07:50:35;;;;;;;15.77;11.48;;;12.00;99.90;;;;;;5010694;28;20036;-71
2024/03/10 07:53:03;;;;;;;15.93;11.93;;;11.80;99.90;;;;;;4986151;28;20054;-71
2024/03/10 07:55:32;;;;;;;14.35;10.20;;;11.70;99.90;;;;;;5011706;28;20112;-75
2024/03/10 07:58:01;;;;;;;13.98;9.98;;;11.80;99.90;;;;;;5012414;28;20041;-71
2024/03/10 08:00:29;;;;;;;11.70;8.83;;;11.80;99.90;;;;;;5011618;28;20029;-72
2024/03/10 08:02:57;;;;;;;14.98;9.55;;;11.70;99.90;;;;;;4999826;28;20063;-72
2024/03/10 08:05:25;;;;;;;12.10;8.77;;;11.90;99.90;;;;;;4998723;28;20041;-72
2024/03/10 08:07:53;;;;;;;12.60;8.95;;;12.10;99.90;;;;;;5010333;28;20041;-74
2024/03/10 08:10:21;;;;;;;13.63;9.20;;;12.00;99.90;;;;;;5013512;28;20418;-72
2024/03/10 08:12:48;;;;;;;12.23;8.23;;;12.10;99.90;;;;;;4990329;28;20413;-72
2024/03/10 08:15:19;;;;;;;13.27;9.35;;;12.00;99.90;;;;;;5016353;28;20113;-71
2024/03/10 08:17:47;;;;;;;;;;;12.10;99.90;;;;;;5012326;28;20061;-72
2024/03/10 08:20:15;;;;;;;47.63;26.70;;;12.40;99.90;;;;;;5012337;28;19917;-74
2024/03/10 08:22:45;;;;;;;27.90;18.77;;;12.70;99.90;;;;;;5008474;28;20033;-72
2024/03/10 08:25:18;;;;;;;17.17;12.55;;;13.00;99.90;;;;;;5007663;28;20050;-71
2024/03/10 08:27:49;;;;;;;13.90;9.30;;;13.40;98.40;;;;;;5016494;28;20029;-71
2024/03/10 08:30:17;;;;;;;10.75;8.20;;;13.10;98.60;;;;;;5006947;28;20110;-70
2024/03/10 08:32:44;;;;;;;12.30;8.30;;;13.20;98.50;;;;;;4994409;28;20050;-71
2024/03/10 08:35:12;;;;;;;9.85;7.78;;;13.40;98.30;;;;;;5004855;28;20036;-71
2024/03/10 08:37:47;;;;;;;12.00;8.35;;;13.60;97.90;;;;;;5005052;28;20393;-73
2024/03/10 08:40:17;;;;;;;10.38;7.55;;;13.90;97.30;;;;;;5007612;28;20045;-80
2024/03/10 08:42:45;;;;;;;10.48;7.43;;;14.10;97.10;;;;;;5011886;28;20108;-73
2024/03/10 08:45:15;;;;;;;10.27;7.00;;;13.70;97.00;;;;;;4994258;28;20476;-74
2024/03/10 08:47:45;;;;;;;10.63;7.60;;;13.60;97.20;;;;;;5012197;28;20461;-74
2024/03/10 08:50:14;;;;;;;10.05;6.90;;;13.70;97.40;;;;;;5006459;28;20120;-76
2024/03/10 08:52:44;;;;;;;9.52;7.38;;;13.70;97.20;;;;;;5009194;28;20127;-71
2024/03/10 08:55:16;;;;;;;11.25;6.95;;;13.50;97.00;;;;;;4992971;28;20580;-79
2024/03/10 08:57:44;;;;;;;11.50;6.80;;;13.50;96.90;;;;;;4990150;28;20046;-72
2024/03/10 09:00:17;;;;;;;8.32;6.75;;;13.60;96.90;;;;;;4998960;28;20582;-73
2024/03/10 09:02:45;;;;;;;9.15;6.93;;;13.60;96.80;;;;;;5014986;28;20037;-73
2024/03/10 09:05:15;;;;;;;10.70;7.15;;;13.60;96.40;;;;;;5013128;28;20033;-73
2024/03/10 09:07:43;;;;;;;8.80;6.72;;;13.40;96.60;;;;;;5011848;28;20034;-72
2024/03/10 09:10:11;;;;;;;9.65;6.88;;;13.50;96.50;;;;;;5000501;28;20070;-71
2024/03/10 09:12:42;;;;;;;10.52;6.97;;;13.50;96.50;;;;;;4996758;28;20063;-73
2024/03/10 09:15:12;;;;;;;8.32;6.15;;;13.50;96.50;;;;;;5000118;28;20087;-73
2024/03/10 09:17:41;;;;;;;8.70;6.43;;;13.60;95.80;;;;;;5003797;28;20041;-73
2024/03/10 09:20:13;;;;;;;9.45;7.18;;;13.50;95.10;;;;;;5012915;28;20036;-72
2024/03/10 09:22:44;;;;;;;10.30;6.72;;;13.70;95.00;;;;;;5005883;28;20477;-72
2024/03/10 09:25:21;;;;;;;11.02;6.82;;;13.90;94.80;;;;;;5014776;28;20040;-72
2024/03/10 09:27:53;;;;;;;7.90;6.60;;;13.80;95.10;;;;;;4997390;28;20045;-72
2024/03/10 09:30:21;;;;;;;;;;;13.90;95.20;;;;;;4997146;28;20027;-70
2024/03/10 09:32:51;;;;;;;9.00;7.10;;;13.70;95.30;;;;;;5007748;28;20015;-72
2024/03/10 09:35:24;;;;;;;8.63;6.40;;;13.70;95.70;;;;;;5014100;28;20045;-71
2024/03/10 09:37:53;;;;;;;9.25;6.47;;;13.90;95.30;;;;;;5012331;28;20374;-72
2024/03/10 09:40:29;;;;;;;17.88;11.60;;;13.70;95.00;;;;;;4996347;28;20090;-70
2024/03/10 09:43:11;;;;;;;26.02;17.00;;;13.80;95.90;;;;;;5013763;28;20116;-71
2024/03/10 09:45:47;;;;;;;10.68;8.15;;;14.10;95.90;;;;;;5014797;28;20500;-69
2024/03/10 09:48:15;;;;;;;54.90;33.60;;;14.30;94.60;;;;;;5009340;28;20126;-71
2024/03/10 09:50:48;;;;;;;94.32;54.17;;;14.50;95.60;;;;;;5013468;28;20515;-71
2024/03/10 09:53:18;;;;;;;17.40;13.18;;;14.80;94.80;;;;;;5004391;28;20057;-72
2024/03/10 09:55:52;;;;;;;9.95;7.65;;;14.80;93.90;;;;;;4982404;28;20036;-74
2024/03/10 09:58:43;;;;;;;7.80;6.35;;;14.30;93.80;;;;;;4979515;28;20044;-74
2024/03/10 10:01:29;;;;;;;8.68;6.35;;;13.90;93.90;;;;;;4992222;28;20064;-73
2024/03/10 10:04:01;;;;;;;9.55;6.55;;;13.60;94.90;;;;;;5007625;28;20801;-72
2024/03/10 10:06:33;;;;;;;9.15;6.22;;;13.80;94.70;;;;;;5007403;28;20042;-72
2024/03/10 10:09:07;;;;;;;9.63;6.93;;;14.10;93.90;;;;;;5006581;28;20064;-73
2024/03/10 10:11:35;;;;;;;10.10;6.15;;;14.20;93.50;;;;;;4999913;28;20041;-72
2024/03/10 10:14:16;;;;;;;9.48;6.55;;;14.40;93.00;;;;;;5000207;28;20038;-71
2024/03/10 10:16:55;;;;;;;8.85;6.47;;;14.50;93.10;;;;;;5003022;28;20073;-71
2024/03/10 10:19:40;;;;;;;40.05;25.65;;;14.70;93.00;;;;;;5002260;28;20084;-74
2024/03/10 10:22:11;;;;;;;20.00;12.43;;;15.20;92.80;;;;;;4977708;28;20038;-74
2024/03/10 10:24:39;;;;;;;13.93;8.70;;;15.20;92.40;;;;;;4989528;28;20042;-72
2024/03/10 10:27:09;;;;;;;10.90;6.80;;;15.20;92.60;;;;;;4976070;28;20070;-75
2024/03/10 10:29:50;;;;;;;8.75;6.55;;;15.40;91.30;;;;;;5013322;28;20117;-72
2024/03/10 10:32:22;;;;;;;10.60;6.70;;;15.40;91.10;;;;;;5010363;28;20033;-77
2024/03/10 10:34:53;;;;;;;9.93;6.28;;;15.30;90.60;;;;;;5014224;28;20041;-71
2024/03/10 10:37:21;;;;;;;12.10;6.85;;;15.30;90.70;;;;;;5003753;28;20042;-74
2024/03/10 10:39:48;;;;;;;8.77;6.10;;;15.20;90.40;;;;;;5006375;28;20451;-75
2024/03/10 10:42:16;;;;;;;10.05;6.30;;;15.30;90.20;;;;;;4989845;28;20029;-73
2024/03/10 10:45:01;;;;;;;8.98;6.57;;;15.70;90.00;;;;;;4989796;28;20048;-76
2024/03/10 10:47:32;;;;;;;9.32;6.53;;;16.10;88.00;;;;;;5010979;28;20045;-72
2024/03/10 10:50:01;;;;;;;15.18;9.88;;;16.40;87.20;;;;;;5012207;28;20065;-74
2024/03/10 10:52:30;;;;;;;14.47;9.30;;;16.60;87.70;;;;;;4964726;28;20050;-72
2024/03/10 10:54:58;;;;;;;49.67;27.85;;;16.10;88.60;;;;;;4996461;28;20297;-74
2024/03/10 10:57:26;;;;;;;13.70;8.38;;;16.90;87.20;;;;;;5015688;28;20046;-75
2024/03/10 10:59:53;;;;;;;9.02;5.88;;;17.20;84.50;;;;;;5007813;28;20051;-72
2024/03/10 11:02:20;;;;;;;8.88;5.93;;;17.20;83.40;;;;;;5000068;28;20043;-74
2024/03/10 11:04:50;;;;;;;9.60;6.18;;;17.30;82.80;;;;;;5009917;28;20038;-76
2024/03/10 11:07:18;;;;;;;10.68;5.97;;;17.70;82.90;;;;;;5011032;28;20057;-72
2024/03/10 11:09:46;;;;;;;10.35;5.80;;;17.80;81.70;;;;;;5010172;28;20041;-74
2024/03/10 11:12:21;;;;;;;8.00;5.85;;;17.30;81.40;;;;;;4999104;28;20033;-74
2024/03/10 11:14:53;;;;;;;21.20;10.60;;;17.40;81.30;;;;;;5001615;28;20041;-73
2024/03/10 11:17:22;;;;;;;63.50;31.90;;;17.40;84.30;;;;;;4973233;28;20607;-71
2024/03/10 11:19:52;;;;;;;14.82;7.63;;;17.70;86.20;;;;;;4996379;28;20594;-72
2024/03/10 11:22:27;;;;;;;20.35;10.80;;;17.60;81.80;;;;;;5007961;28;20038;-71
2024/03/10 11:25:16;;;;;;;49.63;28.80;;;18.10;83.50;;;;;;5006256;28;20427;-72
2024/03/10 11:27:45;;;;;;;33.17;20.23;;;18.20;83.70;;;;;;4987208;28;20049;-72
2024/03/10 11:30:40;;;;;;;10.85;6.78;;;19.10;81.90;;;;;;5002108;28;20400;-73
2024/03/10 11:33:11;;;;;;;33.75;21.92;;;18.70;80.70;;;;;;5001850;28;20049;-72
2024/03/10 11:35:41;;;;;;;19.73;13.63;;;18.20;81.00;;;;;;4994620;28;20073;-72
2024/03/10 11:38:11;;;;;;;17.98;12.48;;;17.80;81.80;;;;;;5011375;28;20096;-74
2024/03/10 11:40:42;;;;;;;9.55;6.97;;;18.20;81.10;;;;;;5013600;28;20033;-73
2024/03/10 11:43:13;;;;;;;8.25;6.43;;;17.60;81.10;;;;;;4995867;28;20532;-73
2024/03/10 11:45:41;;;;;;;;;;;18.10;81.30;;;;;;4982546;28;20034;-71
2024/03/10 11:48:12;;;;;;;7.30;5.40;;;18.40;80.70;;;;;;5002684;28;19924;-72
2024/03/10 11:50:41;;;;;;;7.47;5.20;;;18.30;79.90;;;;;;4998518;28;20501;-72
2024/03/10 11:53:12;;;;;;;7.63;5.30;;;18.20;79.70;;;;;;5007718;28;20042;-72
2024/03/10 11:55:41;;;;;;;6.93;5.07;;;18.10;81.40;;;;;;5016895;28;20409;-74
2024/03/10 11:58:09;;;;;;;7.13;4.47;;;18.70;80.20;;;;;;5014260;28;20034;-74
2024/03/10 12:00:39;;;;;;;7.05;5.00;;;18.80;80.20;;;;;;4998897;28;20038;-71
2024/03/10 12:03:10;;;;;;;8.75;5.20;;;18.90;80.00;;;;;;4995011;28;20042;-74
2024/03/10 12:05:39;;;;;;;7.13;4.63;;;19.50;78.90;;;;;;4973682;28;20034;-73
2024/03/10 12:08:08;;;;;;;6.97;5.18;;;20.20;78.00;;;;;;4997310;28;20049;-73
2024/03/10 12:10:36;;;;;;;7.88;4.88;;;20.60;76.30;;;;;;4993219;28;20043;-73
2024/03/10 12:13:05;;;;;;;8.18;5.18;;;23.20;72.90;;;;;;5002552;28;20090;-74
2024/03/10 12:15:35;;;;;;;9.13;4.60;;;25.80;66.80;;;;;;4979522;28;20075;-74
2024/03/10 12:18:05;;;;;;;8.43;4.07;;;27.80;62.40;;;;;;5002028;28;20038;-77
2024/03/10 12:20:32;;;;;;;6.53;4.10;;;28.30;60.80;;;;;;4993241;28;20031;-75
2024/03/10 12:23:00;;;;;;;7.15;4.65;;;28.40;59.10;;;;;;4989168;28;20074;-76
2024/03/10 12:25:27;;;;;;;8.13;5.50;;;27.30;59.90;;;;;;4991525;28;20039;-73
2024/03/10 12:27:55;;;;;;;20.73;13.65;;;26.80;59.00;;;;;;4986290;28;20041;-74
2024/03/10 12:30:26;;;;;;;18.50;14.48;;;26.30;60.70;;;;;;4982310;28;20481;-77
2024/03/10 12:32:56;;;;;;;11.48;5.65;;;27.30;59.90;;;;;;4981753;28;20037;-77
2024/03/10 12:35:26;;;;;;;9.45;5.93;;;26.70;59.30;;;;;;4982533;28;20453;-76
2024/03/10 12:37:53;;;;;;;8.73;4.97;;;26.10;61.20;;;;;;5003744;28;20154;-75
2024/03/10 12:40:21;;;;;;;10.57;4.60;;;27.70;59.40;;;;;;4994462;28;20092;-78
2024/03/10 12:42:50;;;;;;;9.35;4.78;;;28.80;57.70;;;;;;4974815;28;20038;-74
2024/03/10 12:45:21;;;;;;;8.27;4.85;;;28.10;57.30;;;;;;4993310;28;20064;-76
2024/03/10 12:47:50;;;;;;;7.45;4.75;;;28.60;57.30;;;;;;5002001;28;20046;-74
2024/03/10 12:50:18;;;;;;;8.45;4.28;;;29.80;56.20;;;;;;4989697;28;20101;-74
2024/03/10 12:52:46;;;;;;;8.82;4.47;;;30.20;54.70;;;;;;4979387;28;20102;-77
2024/03/10 12:55:15;;;;;;;7.75;3.90;;;31.10;53.90;;;;;;4976397;28;20037;-77
2024/03/10 12:57:43;;;;;;;7.55;4.53;;;28.70;54.30;;;;;;4998860;28;20042;-78
2024/03/10 13:03:05;;;;;;;7.30;3.90;;;30.20;54.20;;;;;;4994405;28;20049;-74
2024/03/10 13:05:34;;;;;;;7.13;3.88;;;28.90;54.10;;;;;;4996431;28;20042;-74
2024/03/10 13:08:03;;;;;;;7.30;4.35;;;28.20;54.80;;;;;;4997293;28;20137;-76
2024/03/10 13:10:32;;;;;;;7.32;4.32;;;29.10;54.50;;;;;;4993132;28;20061;-75
2024/03/10 13:13:01;;;;;;;;;;;30.30;53.70;;;;;;5000472;28;20034;-75
2024/03/10 13:15:28;;;;;;;7.78;4.00;;;30.10;53.90;;;;;;4992302;28;19921;-74